Time;durP1;ratioP1;P1;durP2;ratioP2;P2;SDS_P1;SDS_P2;PMS_P1;PMS_P2;Temp;Humidity;BMP_temperature;BMP_pressure;BME280_temperature;BME280_humidity;BME280_pressure;Samples;Min_cycle;Max_cycle;Signal;HPM_P1;HPM_P2
2021/08/21 00:00:40;;;;;;;;;;;17.60;99.90;;;;;;5036151;28;19909;-79
2021/08/21 00:03:09;;;;;;;;;;;17.60;99.90;;;;;;5036428;28;19955;-79
2021/08/21 00:05:35;;;;;;;;;;;17.60;99.90;;;;;;5052997;28;19912;-79
2021/08/21 00:08:00;;;;;;;;;;;17.50;99.90;;;;;;5036007;28;20437;-79
2021/08/21 00:10:28;;;;;;;;;;;17.30;99.90;;;;;;5035938;28;20336;-79
2021/08/21 00:12:54;;;;;;;;;;;17.30;99.90;;;;;;5037997;28;20389;-79
2021/08/21 00:15:20;;;;;;;;;;;17.30;99.90;;;;;;5036578;28;19909;-79
2021/08/21 00:17:46;;;;;;;;;;;17.20;99.90;;;;;;5035946;28;19999;-79
2021/08/21 00:20:12;;;;;;;;;;;17.30;99.90;;;;;;5035474;28;19936;-79
2021/08/21 00:22:37;;;;;;;;;;;17.30;99.90;;;;;;5036263;28;20385;-79
2021/08/21 00:25:03;;;;;;;;;;;17.40;99.90;;;;;;5035764;28;19905;-79
2021/08/21 00:27:29;;;;;;;;;;;17.30;99.90;;;;;;5035473;28;19913;-79
2021/08/21 00:29:54;;;;;;;;;;;17.20;99.90;;;;;;5036496;28;19909;-79
2021/08/21 00:32:20;;;;;;;;;;;17.00;99.90;;;;;;5037353;28;20019;-79
2021/08/21 00:34:46;;;;;;;;;;;17.10;99.90;;;;;;5035796;28;19909;-79
2021/08/21 00:37:11;;;;;;;;;;;17.10;99.90;;;;;;5037130;28;20463;-79
2021/08/21 00:39:37;;;;;;;;;;;17.10;99.90;;;;;;5051726;28;19916;-79
2021/08/21 00:42:03;;;;;;;;;;;17.20;99.90;;;;;;5036461;28;19909;-79
2021/08/21 00:44:29;;;;;;;;;;;17.20;99.90;;;;;;5035303;28;20396;-79
2021/08/21 00:47:04;;;;;;;;;;;17.00;99.90;;;;;;5035598;28;20366;-79
2021/08/21 00:49:30;;;;;;;;;;;17.00;99.90;;;;;;5052377;28;20051;-79
2021/08/21 00:51:56;;;;;;;;;;;17.10;99.90;;;;;;5036153;28;19905;-79
2021/08/21 00:54:22;;;;;;;;;;;17.20;99.90;;;;;;5034938;28;19911;-79
2021/08/21 00:56:48;;;;;;;;;;;17.30;99.90;;;;;;5034638;28;19906;-79
2021/08/21 00:59:14;;;;;;;;;;;17.30;99.90;;;;;;5034753;28;19931;-79
2021/08/21 01:01:41;;;;;;;;;;;17.40;99.90;;;;;;5034766;28;20438;-79
2021/08/21 01:04:06;;;;;;;;;;;17.40;99.90;;;;;;5035156;28;19912;-79
2021/08/21 01:06:32;;;;;;;;;;;17.30;99.90;;;;;;5035907;28;19913;-79
2021/08/21 01:08:57;;;;;;;;;;;17.30;99.90;;;;;;5035806;28;19905;-79
2021/08/21 01:11:23;;;;;;;;;;;17.30;99.90;;;;;;5036258;28;19928;-79
2021/08/21 01:13:48;;;;;;;;;;;17.30;99.90;;;;;;5050655;28;19909;-79
2021/08/21 01:16:16;;;;;;;;;;;17.30;99.90;;;;;;5034379;28;20346;-79
2021/08/21 01:18:42;;;;;;;;;;;17.30;99.90;;;;;;5033801;28;19913;-79
2021/08/21 01:21:07;;;;;;;;;;;17.30;99.90;;;;;;5035674;28;19905;-79
2021/08/21 01:23:33;;;;;;;;;;;17.40;99.90;;;;;;5034184;28;19905;-79
2021/08/21 01:25:58;;;;;;;;;;;17.30;99.90;;;;;;5034138;28;19913;-79
2021/08/21 01:28:24;;;;;;;;;;;17.30;99.90;;;;;;5034794;28;20278;-79
2021/08/21 01:30:49;;;;;;;;;;;17.40;99.90;;;;;;5035096;28;19905;-79
2021/08/21 01:33:15;;;;;;;;;;;17.70;99.90;;;;;;5035382;28;20270;-79
2021/08/21 01:35:40;;;;;;;;;;;17.80;99.90;;;;;;5035626;28;19958;-79
2021/08/21 01:38:06;;;;;;;;;;;17.70;99.90;;;;;;5035762;28;19905;-79
2021/08/21 01:40:31;;;;;;;;;;;17.60;99.90;;;;;;5034353;28;19905;-79
2021/08/21 01:42:57;;;;;;;;;;;17.50;99.90;;;;;;5034230;28;19911;-79
2021/08/21 01:45:23;;;;;;;;;;;17.40;99.90;;;;;;5034594;28;19909;-79
2021/08/21 01:47:48;;;;;;;;;;;17.40;99.90;;;;;;5033823;28;19963;-79
2021/08/21 01:50:17;;;;;;;;;;;17.50;99.90;;;;;;5034059;28;19905;-79
2021/08/21 01:52:43;;;;;;;;;;;17.50;99.90;;;;;;5034715;28;19905;-79
2021/08/21 01:55:09;;;;;;;;;;;17.60;99.90;;;;;;5032358;28;19915;-79
2021/08/21 01:57:37;;;;;;;;;;;17.60;99.90;;;;;;5049246;28;19995;-79
2021/08/21 02:00:03;;;;;;;;;;;17.50;99.90;;;;;;5033510;28;19920;-79
2021/08/21 02:02:29;;;;;;;;;;;17.50;99.90;;;;;;5034657;28;19905;-79
2021/08/21 02:04:54;;;;;;;;;;;17.40;99.90;;;;;;5034727;28;19905;-79
2021/08/21 02:07:20;;;;;;;;;;;17.40;99.90;;;;;;5034821;28;19986;-79
2021/08/21 02:09:45;;;;;;;;;;;17.30;99.90;;;;;;5034861;28;19913;-79
2021/08/21 02:12:15;;;;;;;;;;;17.20;99.90;;;;;;5035923;28;19909;-79
2021/08/21 02:14:41;;;;;;;;;;;17.20;99.90;;;;;;5034483;28;20008;-79
2021/08/21 02:17:06;;;;;;;;;;;17.10;99.90;;;;;;5033977;28;19955;-79
2021/08/21 02:19:32;;;;;;;;;;;17.10;99.90;;;;;;5035180;28;19920;-79
2021/08/21 02:21:59;;;;;;;;;;;17.00;99.90;;;;;;5034329;28;19905;-79
2021/08/21 02:24:25;;;;;;;;;;;17.10;99.90;;;;;;5035213;28;19905;-79
2021/08/21 02:26:52;;;;;;;;;;;17.10;99.90;;;;;;5033572;28;19913;-79
2021/08/21 02:29:17;;;;;;;;;;;17.00;99.90;;;;;;5035100;28;19909;-79
2021/08/21 02:31:43;;;;;;;;;;;16.80;99.90;;;;;;5033610;28;19913;-79
2021/08/21 02:34:08;;;;;;;;;;;16.70;99.90;;;;;;5033228;28;19909;-79
2021/08/21 02:36:34;;;;;;;;;;;16.70;99.90;;;;;;5032807;28;20285;-79
2021/08/21 02:38:59;;;;;;;;;;;16.60;99.90;;;;;;5033137;28;19908;-79
2021/08/21 02:41:25;;;;;;;;;;;16.60;99.90;;;;;;5033613;28;20359;-79
2021/08/21 02:43:51;;;;;;;;;;;16.70;99.90;;;;;;5035459;28;20282;-79
2021/08/21 02:46:16;;;;;;;;;;;16.80;99.90;;;;;;5034336;28;19909;-79
2021/08/21 02:48:42;;;;;;;;;;;16.80;99.90;;;;;;5033048;28;19913;-80
2021/08/21 02:51:07;;;;;;;;;;;16.70;99.90;;;;;;5033720;28;19909;-80
2021/08/21 02:53:33;;;;;;;;;;;16.70;99.90;;;;;;5035900;28;19996;-80
2021/08/21 02:56:00;;;;;;;;;;;16.70;99.90;;;;;;5035493;28;19905;-80
2021/08/21 02:58:26;;;;;;;;;;;16.40;99.90;;;;;;5033427;28;20382;-80
2021/08/21 03:00:51;;;;;;;;;;;16.30;99.90;;;;;;5033639;28;20077;-80
2021/08/21 03:03:17;;;;;;;;;;;16.30;99.90;;;;;;5033210;28;19952;-80
2021/08/21 03:05:42;;;;;;;;;;;16.30;99.90;;;;;;5034631;28;19909;-80
2021/08/21 03:08:08;;;;;;;;;;;16.30;99.90;;;;;;5037078;28;19909;-80
2021/08/21 03:10:33;;;;;;;;;;;16.30;99.90;;;;;;5038580;28;19913;-80
2021/08/21 03:12:59;;;;;;;;;;;16.30;99.90;;;;;;5054193;28;19941;-80
2021/08/21 03:15:26;;;;;;;;;;;16.30;99.90;;;;;;5038257;28;20362;-80
2021/08/21 03:17:52;;;;;;;;;;;16.30;99.90;;;;;;5039886;28;19917;-80
2021/08/21 03:20:18;;;;;;;;;;;16.30;99.90;;;;;;5037768;28;19909;-80
2021/08/21 03:22:43;;;;;;;;;;;16.30;99.90;;;;;;5038501;28;19955;-80
2021/08/21 03:25:09;;;;;;;;;;;16.30;99.90;;;;;;5039678;28;19909;-80
2021/08/21 03:27:35;;;;;;;;;;;16.20;99.90;;;;;;5039030;28;19913;-80
2021/08/21 03:30:00;;;;;;;;;;;16.30;99.90;;;;;;5038515;28;19905;-80
2021/08/21 03:32:26;;;;;;;;;;;16.40;99.90;;;;;;5038491;28;19932;-80
2021/08/21 03:34:51;;;;;;;;;;;16.30;99.90;;;;;;5039874;28;20259;-79
2021/08/21 03:37:17;;;;;;;;;;;16.30;99.90;;;;;;5038524;28;19932;-79
2021/08/21 03:39:44;;;;;;;;;;;16.10;99.90;;;;;;5039007;28;19959;-79
2021/08/21 03:42:09;;;;;;;;;;;16.10;99.90;;;;;;5040114;28;19905;-79
2021/08/21 03:44:35;;;;;;;;;;;16.00;99.90;;;;;;5038382;28;19966;-80
2021/08/21 03:47:00;;;;;;;;;;;15.90;99.90;;;;;;5038202;28;19913;-79
2021/08/21 03:49:26;;;;;;;;;;;15.80;99.90;;;;;;5054349;28;20006;-79
2021/08/21 03:51:51;;;;;;;;;;;15.70;99.90;;;;;;5036364;28;19975;-80
2021/08/21 03:54:17;;;;;;;;;;;15.60;99.90;;;;;;5037036;28;19948;-80
2021/08/21 03:56:42;;;;;;;;;;;15.60;99.90;;;;;;5037651;28;19956;-79
2021/08/21 03:59:08;;;;;;;;;;;15.70;99.90;;;;;;5038021;28;19904;-79
2021/08/21 04:01:33;;;;;;;;;;;15.80;99.90;;;;;;5035976;28;20608;-79
2021/08/21 04:03:59;;;;;;;;;;;15.90;99.90;;;;;;5036390;28;19908;-79
2021/08/21 04:06:24;;;;;;;;;;;15.90;99.90;;;;;;5036464;28;19938;-79
2021/08/21 04:08:50;;;;;;;;;;;16.00;99.90;;;;;;5037698;28;19905;-80
2021/08/21 04:11:15;;;;;;;;;;;16.00;99.90;;;;;;5039424;28;19913;-80
2021/08/21 04:13:41;;;;;;;;;;;16.10;99.90;;;;;;5066778;28;19905;-80
2021/08/21 04:16:06;;;;;;;;;;;16.10;99.90;;;;;;5035440;28;19905;-80
2021/08/21 04:18:32;;;;;;;;;;;16.20;99.90;;;;;;5034535;28;19923;-80
2021/08/21 04:20:57;;;;;;;;;;;16.20;99.90;;;;;;5035727;28;20354;-80
2021/08/21 04:23:23;;;;;;;;;;;16.10;99.90;;;;;;5036346;28;19905;-80
2021/08/21 04:25:49;;;;;;;;;;;16.10;99.90;;;;;;5035102;28;19908;-80
2021/08/21 04:28:14;;;;;;;;;;;16.20;99.90;;;;;;5035692;28;19905;-80
2021/08/21 04:30:40;;;;;;;;;;;16.20;99.90;;;;;;5036052;28;19951;-80
2021/08/21 04:33:05;;;;;;;;;;;16.20;99.90;;;;;;5035883;28;19940;-80
2021/08/21 04:35:31;;;;;;;;;;;16.10;99.90;;;;;;5035891;28;20362;-80
2021/08/21 04:37:57;;;;;;;;;;;16.00;99.90;;;;;;5036570;28;19909;-80
2021/08/21 04:40:23;;;;;;;;;;;16.00;99.90;;;;;;5036202;28;20444;-80
2021/08/21 04:42:49;;;;;;;;;;;15.90;99.90;;;;;;5037585;28;19905;-80
2021/08/21 04:45:14;;;;;;;;;;;15.80;99.90;;;;;;5039119;28;20321;-80
2021/08/21 04:47:40;;;;;;;;;;;15.80;99.90;;;;;;5037312;28;19909;-80
2021/08/21 04:50:06;;;;;;;;;;;15.90;99.90;;;;;;5054298;28;19905;-80
2021/08/21 04:52:32;;;;;;;;;;;15.90;99.90;;;;;;5038681;28;19912;-80
2021/08/21 04:54:57;;;;;;;;;;;15.90;99.90;;;;;;5038663;28;19905;-80
2021/08/21 04:57:23;;;;;;;;;;;15.90;99.90;;;;;;5037861;28;19909;-80
2021/08/21 04:59:48;;;;;;;;;;;15.80;99.90;;;;;;5038750;28;19905;-80
2021/08/21 05:02:14;;;;;;;;;;;15.80;99.90;;;;;;5037700;28;19913;-80
2021/08/21 05:04:40;;;;;;;;;;;15.80;99.90;;;;;;5038817;28;20046;-79
2021/08/21 05:07:05;;;;;;;;;;;15.80;99.90;;;;;;5036752;28;19928;-79
2021/08/21 05:09:31;;;;;;;;;;;15.80;99.90;;;;;;5038218;28;19911;-79
2021/08/21 05:11:56;;;;;;;;;;;15.80;99.90;;;;;;5037309;28;20394;-79
2021/08/21 05:14:22;;;;;;;;;;;15.90;99.90;;;;;;5036870;28;19951;-79
2021/08/21 05:16:47;;;;;;;;;;;16.00;99.90;;;;;;5037445;28;19905;-79
2021/08/21 05:19:26;;;;;;;;;;;16.10;99.90;;;;;;5038100;28;19921;-79
2021/08/21 05:21:56;;;;;;;;;;;16.00;99.90;;;;;;5037476;28;20301;-79
2021/08/21 05:24:21;;;;;;;;;;;16.00;99.90;;;;;;5037982;28;19935;-79
2021/08/21 05:26:47;;;;;;;;;;;15.90;99.90;;;;;;5036832;28;19976;-79
2021/08/21 05:29:13;;;;;;;;;;;15.90;99.90;;;;;;5036472;28;20405;-79
2021/08/21 05:31:39;;;;;;;;;;;15.90;99.90;;;;;;5037719;28;19928;-79
2021/08/21 05:34:04;;;;;;;;;;;15.90;99.90;;;;;;5038043;28;20358;-79
2021/08/21 05:36:30;;;;;;;;;;;15.90;99.90;;;;;;5039167;28;20402;-79
2021/08/21 05:38:55;;;;;;;;;;;16.00;99.90;;;;;;5037698;28;19912;-80
2021/08/21 05:41:21;;;;;;;;;;;16.10;99.90;;;;;;5037084;28;19905;-80
2021/08/21 05:43:46;;;;;;;;;;;16.30;99.90;;;;;;5036633;28;19905;-80
2021/08/21 05:46:12;;;;;;;;;;;16.30;99.90;;;;;;5036699;28;19909;-80
2021/08/21 05:48:37;;;;;;;;;;;16.40;99.90;;;;;;5036076;28;20262;-80
2021/08/21 05:51:03;;;;;;;;;;;16.30;99.90;;;;;;5035825;28;19909;-80
2021/08/21 05:53:28;;;;;;;;;;;16.30;99.90;;;;;;5052468;28;19905;-80
2021/08/21 05:55:54;;;;;;;;;;;16.30;99.90;;;;;;5036646;28;19905;-80
2021/08/21 05:58:19;;;;;;;;;;;16.30;99.90;;;;;;5036254;28;19905;-81
2021/08/21 06:00:45;;;;;;;;;;;16.40;99.90;;;;;;5035976;28;19916;-80
2021/08/21 06:03:10;;;;;;;;;;;16.40;99.90;;;;;;5035967;28;19905;-80
2021/08/21 06:05:38;;;;;;;;;;;16.50;99.90;;;;;;5036742;28;19905;-80
2021/08/21 06:08:04;;;;;;;;;;;16.60;99.90;;;;;;5035115;28;19909;-80
2021/08/21 06:10:29;;;;;;;;;;;16.60;99.90;;;;;;5035479;28;19935;-80
2021/08/21 06:12:55;;;;;;;;;;;16.70;99.90;;;;;;5035142;28;20000;-80
2021/08/21 06:15:20;;;;;;;;;;;16.80;99.90;;;;;;5035807;28;19917;-80
2021/08/21 06:17:46;;;;;;;;;;;16.90;99.90;;;;;;5034270;28;19913;-80
2021/08/21 06:20:11;;;;;;;;;;;17.00;99.90;;;;;;5035861;28;19909;-80
2021/08/21 06:22:37;;;;;;;;;;;17.30;99.90;;;;;;5035537;28;19931;-80
2021/08/21 06:25:03;;;;;;;;;;;17.40;99.90;;;;;;5034461;28;19932;-80
2021/08/21 06:27:28;;;;;;;;;;;17.40;99.90;;;;;;5035974;28;19920;-80
2021/08/21 06:29:54;;;;;;;;;;;17.40;99.90;;;;;;5035130;28;19999;-80
2021/08/21 06:32:19;;;;;;;;;;;17.30;99.90;;;;;;5035937;28;19948;-80
2021/08/21 06:34:45;;;;;;;;;;;17.30;99.90;;;;;;5036640;28;19912;-79
2021/08/21 06:37:10;;;;;;;;;;;17.50;99.90;;;;;;5035024;28;19909;-80
2021/08/21 06:39:36;;;;;;;;;;;17.50;99.90;;;;;;5034655;28;19905;-80
2021/08/21 06:42:02;;;;;;;;;;;17.60;99.90;;;;;;5034532;28;19933;-81
2021/08/21 06:44:27;;;;;;;;;;;17.70;99.90;;;;;;5034892;28;19905;-80
2021/08/21 06:46:53;;;;;;;;;;;17.90;99.90;;;;;;5051107;28;19999;-80
2021/08/21 06:49:18;;;;;;;;;;;18.00;99.90;;;;;;5034891;28;20255;-80
2021/08/21 06:51:44;;;;;;;;;;;18.20;99.90;;;;;;5036395;28;19949;-80
2021/08/21 06:54:09;;;;;;;;;;;18.50;99.90;;;;;;5051699;28;19909;-80
2021/08/21 06:56:35;;;;;;;;;;;18.70;99.90;;;;;;5035541;28;19915;-80
2021/08/21 06:59:01;;;;;;;;;;;19.00;99.90;;;;;;5036136;28;19951;-80
2021/08/21 07:01:27;;;;;;;;;;;19.10;99.90;;;;;;5035943;28;19952;-80
2021/08/21 07:03:53;;;;;;;;;;;19.20;99.90;;;;;;5052460;28;19909;-80
2021/08/21 07:06:18;;;;;;;;;;;19.20;99.90;;;;;;5035982;28;19916;-80
2021/08/21 07:08:44;;;;;;;;;;;19.20;99.90;;;;;;5036894;28;19912;-80
2021/08/21 07:11:09;;;;;;;;;;;19.20;99.90;;;;;;5056086;28;20333;-80
2021/08/21 07:13:35;;;;;;;;;;;19.30;99.90;;;;;;5045121;28;19913;-80
2021/08/21 07:16:00;;;;;;;;;;;19.40;99.90;;;;;;5049988;28;19905;-80
2021/08/21 07:18:26;;;;;;;;;;;19.50;99.90;;;;;;5032361;28;19917;-79
2021/08/21 07:20:51;;;;;;;;;;;19.60;99.90;;;;;;5032500;28;19905;-79
2021/08/21 07:23:17;;;;;;;;;;;20.40;99.90;;;;;;5031859;28;19905;-79
2021/08/21 07:25:44;;;;;;;;;;;21.60;99.90;;;;;;5048643;28;19908;-79
2021/08/21 07:28:10;;;;;;;;;;;22.80;99.90;;;;;;5032079;28;19905;-79
2021/08/21 07:30:36;;;;;;;;;;;23.80;99.90;;;;;;5031888;28;19985;-79
2021/08/21 07:33:01;;;;;;;;;;;24.00;99.90;;;;;;5033015;28;19971;-79
2021/08/21 07:35:27;;;;;;;;;;;23.40;99.90;;;;;;5048276;28;19909;-79
2021/08/21 07:37:52;;;;;;;;;;;22.90;99.90;;;;;;5033477;28;20411;-80
2021/08/21 07:40:18;;;;;;;;;;;22.50;99.90;;;;;;5032411;28;19951;-79
2021/08/21 07:42:43;;;;;;;;;;;22.30;99.90;;;;;;5033367;28;19957;-78
2021/08/21 07:45:09;;;;;;;;;;;22.00;99.90;;;;;;5031663;28;19941;-79
2021/08/21 07:47:35;;;;;;;;;;;21.90;99.90;;;;;;5048103;28;19909;-79
2021/08/21 07:50:00;;;;;;;;;;;22.10;99.90;;;;;;5031458;28;20281;-79
2021/08/21 07:52:26;;;;;;;;;;;22.50;99.90;;;;;;5032021;28;19913;-79
2021/08/21 07:54:53;;;;;;;;;;;23.10;99.90;;;;;;5036459;28;19931;-79
2021/08/21 07:57:19;;;;;;;;;;;23.40;99.90;;;;;;5037195;28;19912;-79
2021/08/21 07:59:44;;;;;;;;;;;24.10;99.90;;;;;;5036341;28;19905;-79
2021/08/21 08:02:10;;;;;;;;;;;24.40;99.90;;;;;;5035402;28;20346;-79
2021/08/21 08:04:35;;;;;;;;;;;24.10;99.90;;;;;;5035305;28;20373;-79
2021/08/21 08:07:01;;;;;;;;;;;24.00;99.90;;;;;;5036157;28;19912;-79
2021/08/21 08:09:28;;;;;;;;;;;23.90;99.90;;;;;;5036040;28;19927;-79
2021/08/21 08:11:54;;;;;;;;;;;24.10;99.90;;;;;;5035310;28;19979;-79
2021/08/21 08:14:20;;;;;;;;;;;24.30;99.90;;;;;;5036460;28;19904;-79
2021/08/21 08:16:45;;;;;;;;;;;24.50;99.90;;;;;;5034942;28;19955;-79
2021/08/21 08:19:11;;;;;;;;;;;24.20;99.90;;;;;;5035730;28;19948;-79
2021/08/21 08:21:36;;;;;;;;;;;24.10;99.90;;;;;;5036288;28;19905;-79
2021/08/21 08:24:02;;;;;;;;;;;24.30;99.90;;;;;;5035436;28;20347;-79
2021/08/21 08:26:27;;;;;;;;;;;24.90;99.90;;;;;;5035793;28;19913;-79
2021/08/21 08:28:53;;;;;;;;;;;25.20;99.90;;;;;;5035622;28;19909;-79
2021/08/21 08:31:18;;;;;;;;;;;25.90;99.90;;;;;;5036785;28;19905;-79
2021/08/21 08:33:44;;;;;;;;;;;25.80;99.90;;;;;;5036799;28;20259;-78
2021/08/21 08:36:09;;;;;;;;;;;25.90;99.90;;;;;;5036359;28;19911;-78
2021/08/21 08:38:35;;;;;;;;;;;26.30;99.90;;;;;;5036927;28;19987;-78
2021/08/21 08:41:01;;;;;;;;;;;26.90;99.90;;;;;;5052250;28;19967;-78
2021/08/21 08:43:27;;;;;;;;;;;26.70;99.90;;;;;;5036172;28;19908;-78
2021/08/21 08:45:52;;;;;;;;;;;27.60;99.90;;;;;;5037410;28;19906;-78
2021/08/21 08:48:18;;;;;;;;;;;28.00;99.90;;;;;;5036395;28;19905;-78
2021/08/21 08:50:44;;;;;;;;;;;28.40;99.90;;;;;;5035015;28;20062;-78
2021/08/21 08:53:10;;;;;;;;;;;29.40;99.90;;;;;;5052603;28;19905;-78
2021/08/21 08:55:35;;;;;;;;;;;29.90;98.50;;;;;;5035794;28;19968;-79
2021/08/21 08:58:03;;;;;;;;;;;29.10;98.40;;;;;;5036492;28;19936;-79
2021/08/21 09:00:29;;;;;;;;;;;27.90;99.80;;;;;;5036529;28;19909;-79
2021/08/21 09:02:56;;;;;;;;;;;28.00;99.90;;;;;;5035973;28;20281;-79
2021/08/21 09:05:23;;;;;;;;;;;28.00;99.90;;;;;;5036937;28;20385;-79
2021/08/21 09:07:56;;;;;;;;;;;28.90;98.70;;;;;;5037003;28;19962;-79
2021/08/21 09:10:22;;;;;;;;;;;29.40;98.00;;;;;;5035975;28;19905;-80
2021/08/21 09:12:48;;;;;;;;;;;28.60;97.40;;;;;;5037448;28;19909;-80
2021/08/21 09:15:35;;;;;;;;;;;28.90;96.60;;;;;;5037058;28;20313;-79
2021/08/21 09:18:05;;;;;;;;;;;28.50;97.10;;;;;;5034060;28;20333;-79
2021/08/21 09:20:31;;;;;;;;;;;28.00;98.50;;;;;;5052295;28;19916;-79
2021/08/21 09:23:15;;;;;;;;;;;28.80;97.80;;;;;;5036781;28;20289;-79
2021/08/21 09:25:40;;;;;;;;;;;29.10;96.70;;;;;;5035268;28;19984;-79
2021/08/21 09:28:16;;;;;;;;;;;29.00;96.90;;;;;;5034747;28;19940;-79
2021/08/21 09:30:42;;;;;;;;;;;28.60;97.40;;;;;;5034911;28;19948;-78
2021/08/21 09:33:07;;;;;;;;;;;28.10;98.20;;;;;;5035211;28;20273;-78
2021/08/21 09:35:33;;;;;;;;;;;28.40;98.50;;;;;;5052056;28;19913;-78
2021/08/21 09:37:59;;;;;;;;;;;29.30;97.50;;;;;;5034597;28;19912;-79
2021/08/21 09:40:33;;;;;;;;;;;29.50;97.20;;;;;;5035903;28;19948;-79
2021/08/21 09:43:00;;;;;;;;;;;29.00;97.20;;;;;;5034426;28;19989;-79
2021/08/21 09:45:25;;;;;;;;;;;28.20;98.40;;;;;;5035737;28;19915;-79
2021/08/21 09:47:58;;;;;;;;;;;27.70;98.50;;;;;;5034251;28;19913;-79
2021/08/21 09:50:23;;;;;;;;;;;27.00;99.60;;;;;;5034232;28;20286;-79
2021/08/21 09:52:49;;;;;;;;;;;26.70;99.90;;;;;;5034820;28;19905;-79
2021/08/21 09:55:19;;;;;;;;;;;26.90;99.90;;;;;;5035487;28;20012;-79
2021/08/21 09:57:56;;;;;;;;;;;27.20;99.90;;;;;;5034342;28;19905;-79
2021/08/21 10:00:22;;;;;;;;;;;27.20;99.90;;;;;;5036125;28;19905;-79
2021/08/21 10:02:48;;;;;;;;;;;27.40;99.90;;;;;;5034563;28;19905;-79
2021/08/21 10:05:13;;;;;;;;;;;27.20;99.90;;;;;;5051883;28;20013;-79
2021/08/21 10:07:44;;;;;;;;;;;26.90;99.90;;;;;;5034588;28;19913;-79
2021/08/21 10:10:11;;;;;;;;;;;26.70;99.90;;;;;;5047558;28;19909;-79
2021/08/21 10:12:40;;;;;;;;;;;27.00;99.90;;;;;;5041083;28;19905;-79
2021/08/21 10:15:05;;;;;;;;;;;27.50;99.90;;;;;;5033283;28;19905;-79
2021/08/21 10:17:31;;;;;;;;;;;28.40;98.50;;;;;;5033606;28;20373;-79
2021/08/21 10:19:57;;;;;;;;;;;27.90;98.80;;;;;;5034321;28;20305;-79
2021/08/21 10:22:27;;;;;;;;;;;27.80;98.50;;;;;;5034461;28;19905;-79
2021/08/21 10:24:53;;;;;;;;;;;28.00;98.00;;;;;;5033001;28;19963;-79
2021/08/21 10:27:24;;;;;;;;;;;28.40;98.80;;;;;;5048936;28;19915;-79
2021/08/21 10:30:12;;;;;;;;;;;29.20;96.20;;;;;;5033878;28;20415;-79
2021/08/21 10:32:41;;;;;;;;;;;28.90;96.40;;;;;;5033809;28;20374;-79
2021/08/21 10:35:08;;;;;;;;;;;28.30;97.00;;;;;;5032485;28;19911;-78
2021/08/21 10:37:33;;;;;;;;;;;28.10;97.80;;;;;;5033573;28;20274;-78
2021/08/21 10:40:19;;;;;;;;;;;28.00;97.30;;;;;;5049896;28;19905;-78
2021/08/21 10:42:58;;;;;;;;;;;28.20;97.10;;;;;;5034950;28;19911;-78
2021/08/21 10:45:42;;;;;;;;;;;28.70;96.80;;;;;;5034626;28;20594;-79
2021/08/21 10:48:11;;;;;;;;;;;29.30;96.50;;;;;;5050333;28;20472;-79
2021/08/21 10:50:40;;;;;;;;;;;28.40;96.60;;;;;;5032782;28;19912;-79
2021/08/21 10:53:06;;;;;;;;;;;28.20;96.50;;;;;;5033268;28;19915;-79
2021/08/21 10:55:36;;;;;;;;;;;28.40;96.20;;;;;;5033955;28;19912;-79
2021/08/21 10:58:01;;;;;;;;;;;28.10;96.70;;;;;;5034056;28;19905;-79
2021/08/21 11:00:39;;;;;;;;;;;28.00;96.70;;;;;;5049021;28;19963;-78
2021/08/21 11:03:08;;;;;;;;;;;28.20;96.90;;;;;;5050313;28;19913;-78
2021/08/21 11:05:53;;;;;;;;;;;28.50;96.30;;;;;;5035747;28;20000;-79
2021/08/21 11:08:22;;;;;;;;;;;29.00;94.90;;;;;;5050027;28;19916;-79
2021/08/21 11:10:48;;;;;;;;;;;28.70;95.20;;;;;;5033695;28;19905;-79
2021/08/21 11:13:32;;;;;;;;;;;28.50;96.30;;;;;;5035552;28;19984;-79
2021/08/21 11:16:03;;;;;;;;;;;28.70;96.20;;;;;;5050019;28;19936;-79
2021/08/21 11:18:29;;;;;;;;;;;27.60;97.00;;;;;;5049936;28;19944;-79
2021/08/21 11:20:54;;;;;;;;;;;26.80;98.50;;;;;;5032611;28;19905;-79
2021/08/21 11:23:20;;;;;;;;;;;26.50;99.40;;;;;;5033062;28;19905;-79
2021/08/21 11:25:46;;;;;;;;;;;26.60;99.40;;;;;;5032513;28;19964;-79
2021/08/21 11:28:22;;;;;;;;;;;26.80;99.00;;;;;;5034309;28;19963;-79
2021/08/21 11:31:20;;;;;;;;;;;26.70;98.60;;;;;;5037566;28;19909;-79
2021/08/21 11:33:53;;;;;;;;;;;26.90;99.10;;;;;;4993530;28;19905;-78
2021/08/21 11:36:22;;;;;;;;;;;26.90;98.80;;;;;;5037448;28;19999;-78
2021/08/21 11:38:47;;;;;;;;;;;27.10;98.00;;;;;;5053842;28;19930;-78
2021/08/21 11:41:14;;;;;;;;;;;27.20;97.40;;;;;;5037069;28;19963;-78
2021/08/21 11:43:41;;;;;;;;;;;27.30;97.50;;;;;;5037020;28;19909;-78
2021/08/21 11:46:07;;;;;;;;;;;27.00;98.00;;;;;;5036733;28;19905;-78
2021/08/21 11:48:34;;;;;;;;;;;26.90;98.10;;;;;;5037178;28;19931;-80
2021/08/21 11:51:00;;;;;;;;;;;26.90;99.20;;;;;;5037552;28;20416;-79
2021/08/21 11:53:28;;;;;;;;;;;26.90;99.70;;;;;;5037179;28;19909;-79
2021/08/21 11:55:55;;;;;;;;;;;27.00;98.50;;;;;;5038246;28;19916;-79
2021/08/21 11:58:28;;;;;;;;;;;27.20;98.40;;;;;;5053958;28;19905;-79
2021/08/21 12:00:55;;;;;;;;;;;27.50;98.20;;;;;;5036847;28;19933;-79
2021/08/21 12:03:34;;;;;;;;;;;27.50;97.80;;;;;;5036997;28;19905;-79
2021/08/21 12:05:59;;;;;;;;;;;27.80;97.40;;;;;;5037853;28;19911;-79
2021/08/21 12:08:25;;;;;;;;;;;27.80;97.80;;;;;;5037384;28;20000;-79
2021/08/21 12:10:52;;;;;;;;;;;28.20;98.00;;;;;;5038331;28;19905;-79
2021/08/21 12:13:24;;;;;;;;;;;28.40;96.60;;;;;;5036805;28;19996;-79
2021/08/21 12:15:50;;;;;;;;;;;28.40;96.80;;;;;;5037119;28;19908;-80
2021/08/21 12:18:17;;;;;;;;;;;28.90;96.10;;;;;;5036792;28;19924;-80
2021/08/21 12:20:42;;;;;;;;;;;28.90;96.10;;;;;;5038180;28;19905;-80
2021/08/21 12:23:11;;;;;;;;;;;28.60;96.70;;;;;;5036647;28;19996;-80
2021/08/21 12:25:46;;;;;;;;;;;28.50;95.60;;;;;;5037886;28;19912;-79
2021/08/21 12:28:12;;;;;;;;;;;28.20;96.00;;;;;;5053407;28;19980;-79
2021/08/21 12:30:38;;;;;;;;;;;28.50;97.10;;;;;;5037438;28;19912;-79
2021/08/21 12:33:12;;;;;;;;;;;29.30;95.00;;;;;;5036970;28;20171;-79
2021/08/21 12:35:38;;;;;;;;;;;29.70;95.00;;;;;;5038607;28;19905;-79
2021/08/21 12:38:07;;;;;;;;;;;29.80;94.00;;;;;;5036193;28;19936;-79
2021/08/21 12:40:33;;;;;;;;;;;28.90;94.70;;;;;;5037795;28;19967;-79
2021/08/21 12:43:06;;;;;;;;;;;28.60;94.60;;;;;;5037683;28;19908;-79
2021/08/21 12:45:40;;;;;;;;;;;28.40;95.10;;;;;;5038111;28;19912;-79
2021/08/21 12:48:07;;;;;;;;;;;28.40;95.40;;;;;;5035974;28;19913;-79
2021/08/21 12:50:39;;;;;;;;;;;28.00;95.80;;;;;;5037501;28;19909;-79
2021/08/21 12:53:04;;;;;;;;;;;27.70;96.20;;;;;;5053280;28;19912;-79
2021/08/21 12:55:30;;;;;;;;;;;27.90;96.50;;;;;;5036404;28;19905;-79
2021/08/21 12:58:06;;;;;;;;;;;28.70;96.40;;;;;;5037005;28;19905;-79
2021/08/21 13:00:33;;;;;;;;;;;29.00;95.20;;;;;;5036955;28;19943;-79
2021/08/21 13:02:58;;;;;;;;;;;28.50;95.20;;;;;;5037883;28;20000;-79
2021/08/21 13:05:27;;;;;;;;;;;27.80;96.30;;;;;;5037441;28;19956;-79
2021/08/21 13:07:54;;;;;;;;;;;27.20;97.00;;;;;;5040939;28;19913;-79
2021/08/21 13:10:20;;;;;;;;;;;26.90;96.80;;;;;;5049752;28;20289;-79
2021/08/21 13:12:46;;;;;;;;;;;27.10;96.80;;;;;;5034779;28;19905;-79
2021/08/21 13:15:13;;;;;;;;;;;27.60;96.30;;;;;;5036048;28;19920;-79
2021/08/21 13:17:39;;;;;;;;;;;28.00;96.00;;;;;;5036640;28;19909;-79
2021/08/21 13:20:05;;;;;;;;;;;28.30;95.30;;;;;;5037939;28;19916;-79
2021/08/21 13:22:31;;;;;;;;;;;28.50;96.00;;;;;;5036202;28;20278;-79
2021/08/21 13:24:56;;;;;;;;;;;27.90;95.80;;;;;;5036480;28;19909;-80
2021/08/21 13:27:22;;;;;;;;;;;27.80;95.90;;;;;;5033856;28;20485;-79
2021/08/21 13:29:48;;;;;;;;;;;27.90;96.00;;;;;;5034501;28;19912;-79
2021/08/21 13:32:13;;;;;;;;;;;28.30;95.20;;;;;;5034798;28;19909;-79
2021/08/21 13:34:39;;;;;;;;;;;28.50;95.20;;;;;;5034617;28;19948;-78
2021/08/21 13:37:05;;;;;;;;;;;28.50;95.80;;;;;;5034893;28;19911;-78
2021/08/21 13:39:31;;;;;;;;;;;28.30;95.00;;;;;;5034521;28;19912;-78
2021/08/21 13:41:56;;;;;;;;;;;28.20;95.40;;;;;;5035898;28;19905;-78
2021/08/21 13:44:22;;;;;;;;;;;28.30;95.90;;;;;;5051214;28;19954;-80
2021/08/21 13:46:47;;;;;;;;;;;28.40;95.30;;;;;;5034605;28;19909;-80
2021/08/21 13:49:13;;;;;;;;;;;27.90;96.10;;;;;;5051686;28;19912;-79
2021/08/21 13:51:41;;;;;;;;;;;27.70;96.10;;;;;;5036046;28;20358;-79
2021/08/21 13:54:07;;;;;;;;;;;27.60;96.20;;;;;;5035124;28;19905;-79
2021/08/21 13:56:33;;;;;;;;;;;27.60;96.90;;;;;;5034720;28;19963;-79
2021/08/21 13:58:58;;;;;;;;;;;27.60;96.00;;;;;;5034769;28;19909;-79
2021/08/21 14:01:24;;;;;;;;;;;27.40;96.40;;;;;;5035715;28;19916;-78
2021/08/21 14:03:49;;;;;;;;;;;27.30;97.20;;;;;;5034609;28;20232;-78
2021/08/21 14:06:15;;;;;;;;;;;27.40;97.00;;;;;;5034839;28;19932;-78
2021/08/21 14:08:41;;;;;;;;;;;27.40;98.10;;;;;;5036105;28;20026;-78
2021/08/21 14:11:06;;;;;;;;;;;27.70;96.20;;;;;;5034696;28;19987;-78
2021/08/21 14:13:32;;;;;;;;;;;27.60;96.70;;;;;;5035502;28;19913;-78